sensor_id;sensor_type;location;lat;lon;timestamp;P1;durP1;ratioP1;P2;durP2;ratioP2
73321;SDS011;61549;37.044;22.128;2022-07-04T00:00:46;9.55;;;7.65;;
73321;SDS011;61549;37.044;22.128;2022-07-04T00:03:12;11.35;;;7.95;;
73321;SDS011;61549;37.044;22.128;2022-07-04T00:05:38;9.77;;;8.00;;
73321;SDS011;61549;37.044;22.128;2022-07-04T00:08:04;11.23;;;7.72;;
73321;SDS011;61549;37.044;22.128;2022-07-04T00:10:30;10.57;;;8.02;;
73321;SDS011;61549;37.044;22.128;2022-07-04T00:12:56;10.60;;;8.20;;
73321;SDS011;61549;37.044;22.128;2022-07-04T00:15:22;9.98;;;8.00;;
73321;SDS011;61549;37.044;22.128;2022-07-04T00:17:48;10.70;;;8.13;;
73321;SDS011;61549;37.044;22.128;2022-07-04T00:20:14;10.40;;;7.78;;
73321;SDS011;61549;37.044;22.128;2022-07-04T00:22:40;12.98;;;8.10;;
73321;SDS011;61549;37.044;22.128;2022-07-04T00:25:06;10.45;;;7.78;;
73321;SDS011;61549;37.044;22.128;2022-07-04T00:27:32;8.63;;;7.55;;
73321;SDS011;61549;37.044;22.128;2022-07-04T00:29:58;12.05;;;8.40;;
73321;SDS011;61549;37.044;22.128;2022-07-04T00:32:24;10.50;;;7.68;;
73321;SDS011;61549;37.044;22.128;2022-07-04T00:34:50;13.18;;;8.60;;
73321;SDS011;61549;37.044;22.128;2022-07-04T00:37:16;14.82;;;8.45;;
73321;SDS011;61549;37.044;22.128;2022-07-04T00:39:42;9.95;;;8.18;;
73321;SDS011;61549;37.044;22.128;2022-07-04T00:42:08;9.43;;;7.78;;
73321;SDS011;61549;37.044;22.128;2022-07-04T00:44:34;9.77;;;7.47;;
73321;SDS011;61549;37.044;22.128;2022-07-04T00:47:03;12.75;;;8.18;;
73321;SDS011;61549;37.044;22.128;2022-07-04T00:49:30;10.65;;;7.93;;
73321;SDS011;61549;37.044;22.128;2022-07-04T00:51:56;9.95;;;7.63;;
73321;SDS011;61549;37.044;22.128;2022-07-04T00:54:25;9.43;;;7.63;;
73321;SDS011;61549;37.044;22.128;2022-07-04T00:56:55;10.60;;;8.05;;
73321;SDS011;61549;37.044;22.128;2022-07-04T00:59:23;10.85;;;7.57;;
73321;SDS011;61549;37.044;22.128;2022-07-04T01:01:49;9.73;;;7.43;;
73321;SDS011;61549;37.044;22.128;2022-07-04T01:04:16;11.13;;;7.63;;
73321;SDS011;61549;37.044;22.128;2022-07-04T01:06:42;9.18;;;7.60;;
73321;SDS011;61549;37.044;22.128;2022-07-04T01:09:08;10.38;;;7.95;;
73321;SDS011;61549;37.044;22.128;2022-07-04T01:11:34;11.43;;;7.35;;
73321;SDS011;61549;37.044;22.128;2022-07-04T01:14:00;8.55;;;7.38;;
73321;SDS011;61549;37.044;22.128;2022-07-04T01:16:27;9.65;;;7.75;;
73321;SDS011;61549;37.044;22.128;2022-07-04T01:18:53;10.75;;;7.30;;
73321;SDS011;61549;37.044;22.128;2022-07-04T01:21:20;10.57;;;7.35;;
73321;SDS011;61549;37.044;22.128;2022-07-04T01:23:46;8.77;;;7.47;;
73321;SDS011;61549;37.044;22.128;2022-07-04T01:26:12;8.20;;;7.28;;
73321;SDS011;61549;37.044;22.128;2022-07-04T01:28:38;8.40;;;6.93;;
73321;SDS011;61549;37.044;22.128;2022-07-04T01:31:05;11.75;;;7.63;;
73321;SDS011;61549;37.044;22.128;2022-07-04T01:33:31;11.13;;;7.55;;
73321;SDS011;61549;37.044;22.128;2022-07-04T01:35:58;9.43;;;7.20;;
73321;SDS011;61549;37.044;22.128;2022-07-04T01:38:25;9.48;;;7.25;;
73321;SDS011;61549;37.044;22.128;2022-07-04T01:40:51;10.27;;;7.18;;
73321;SDS011;61549;37.044;22.128;2022-07-04T01:43:17;8.40;;;7.43;;
73321;SDS011;61549;37.044;22.128;2022-07-04T01:45:43;9.95;;;7.43;;
73321;SDS011;61549;37.044;22.128;2022-07-04T01:48:10;9.57;;;7.30;;
73321;SDS011;61549;37.044;22.128;2022-07-04T01:50:37;10.52;;;7.32;;
73321;SDS011;61549;37.044;22.128;2022-07-04T01:53:04;10.73;;;7.60;;
73321;SDS011;61549;37.044;22.128;2022-07-04T01:55:34;14.45;;;7.63;;
73321;SDS011;61549;37.044;22.128;2022-07-04T01:57:59;7.93;;;6.72;;
73321;SDS011;61549;37.044;22.128;2022-07-04T02:00:26;11.65;;;6.85;;
73321;SDS011;61549;37.044;22.128;2022-07-04T02:03:11;8.27;;;6.65;;
73321;SDS011;61549;37.044;22.128;2022-07-04T02:05:37;8.55;;;6.82;;
73321;SDS011;61549;37.044;22.128;2022-07-04T02:08:06;10.32;;;6.60;;
73321;SDS011;61549;37.044;22.128;2022-07-04T02:10:33;7.70;;;6.30;;
73321;SDS011;61549;37.044;22.128;2022-07-04T02:13:00;8.80;;;6.28;;
73321;SDS011;61549;37.044;22.128;2022-07-04T02:15:26;7.65;;;6.15;;
73321;SDS011;61549;37.044;22.128;2022-07-04T02:17:53;7.28;;;5.55;;
73321;SDS011;61549;37.044;22.128;2022-07-04T02:20:20;8.88;;;5.95;;
73321;SDS011;61549;37.044;22.128;2022-07-04T02:22:46;7.63;;;5.85;;
73321;SDS011;61549;37.044;22.128;2022-07-04T02:25:12;8.82;;;6.20;;
73321;SDS011;61549;37.044;22.128;2022-07-04T02:27:38;7.65;;;6.15;;
73321;SDS011;61549;37.044;22.128;2022-07-04T02:30:04;7.82;;;6.03;;
73321;SDS011;61549;37.044;22.128;2022-07-04T02:32:30;9.43;;;5.68;;
73321;SDS011;61549;37.044;22.128;2022-07-04T02:34:56;7.95;;;5.90;;
73321;SDS011;61549;37.044;22.128;2022-07-04T02:37:22;10.98;;;6.28;;
73321;SDS011;61549;37.044;22.128;2022-07-04T02:39:48;9.55;;;6.15;;
73321;SDS011;61549;37.044;22.128;2022-07-04T02:42:14;8.07;;;6.60;;
73321;SDS011;61549;37.044;22.128;2022-07-04T02:44:40;8.05;;;6.35;;
73321;SDS011;61549;37.044;22.128;2022-07-04T02:47:06;10.40;;;6.75;;
73321;SDS011;61549;37.044;22.128;2022-07-04T02:49:32;8.82;;;6.82;;
73321;SDS011;61549;37.044;22.128;2022-07-04T02:51:58;9.57;;;6.63;;
73321;SDS011;61549;37.044;22.128;2022-07-04T02:54:24;10.40;;;6.50;;
73321;SDS011;61549;37.044;22.128;2022-07-04T02:56:50;10.80;;;6.63;;
73321;SDS011;61549;37.044;22.128;2022-07-04T02:59:16;9.10;;;7.07;;
73321;SDS011;61549;37.044;22.128;2022-07-04T03:01:41;8.40;;;6.90;;
73321;SDS011;61549;37.044;22.128;2022-07-04T03:04:07;8.60;;;7.28;;
73321;SDS011;61549;37.044;22.128;2022-07-04T03:06:33;11.90;;;7.10;;
73321;SDS011;61549;37.044;22.128;2022-07-04T03:08:59;9.48;;;7.28;;
73321;SDS011;61549;37.044;22.128;2022-07-04T03:11:25;11.02;;;7.57;;
73321;SDS011;61549;37.044;22.128;2022-07-04T03:13:51;8.80;;;7.60;;
73321;SDS011;61549;37.044;22.128;2022-07-04T03:16:16;9.57;;;7.60;;
73321;SDS011;61549;37.044;22.128;2022-07-04T03:18:42;10.82;;;7.32;;
73321;SDS011;61549;37.044;22.128;2022-07-04T03:21:08;9.77;;;7.20;;
73321;SDS011;61549;37.044;22.128;2022-07-04T03:23:34;13.38;;;7.35;;
73321;SDS011;61549;37.044;22.128;2022-07-04T03:26:00;12.05;;;7.53;;
73321;SDS011;61549;37.044;22.128;2022-07-04T03:28:26;9.60;;;7.55;;
73321;SDS011;61549;37.044;22.128;2022-07-04T03:30:56;9.55;;;7.82;;
73321;SDS011;61549;37.044;22.128;2022-07-04T03:33:22;11.07;;;7.22;;
73321;SDS011;61549;37.044;22.128;2022-07-04T03:35:47;11.82;;;7.72;;
73321;SDS011;61549;37.044;22.128;2022-07-04T03:38:13;12.95;;;8.90;;
73321;SDS011;61549;37.044;22.128;2022-07-04T03:40:39;8.85;;;7.22;;
73321;SDS011;61549;37.044;22.128;2022-07-04T03:43:05;9.00;;;8.10;;
73321;SDS011;61549;37.044;22.128;2022-07-04T03:45:31;10.10;;;7.82;;
73321;SDS011;61549;37.044;22.128;2022-07-04T03:47:57;10.80;;;8.05;;
73321;SDS011;61549;37.044;22.128;2022-07-04T03:50:23;10.10;;;8.32;;
73321;SDS011;61549;37.044;22.128;2022-07-04T03:52:50;11.10;;;8.57;;
73321;SDS011;61549;37.044;22.128;2022-07-04T03:55:16;11.95;;;8.40;;
73321;SDS011;61549;37.044;22.128;2022-07-04T03:57:42;12.40;;;8.60;;
73321;SDS011;61549;37.044;22.128;2022-07-04T04:00:09;12.30;;;8.40;;
73321;SDS011;61549;37.044;22.128;2022-07-04T04:02:36;12.55;;;8.73;;
73321;SDS011;61549;37.044;22.128;2022-07-04T04:05:02;12.30;;;8.75;;
73321;SDS011;61549;37.044;22.128;2022-07-04T04:07:47;10.38;;;8.80;;
73321;SDS011;61549;37.044;22.128;2022-07-04T04:10:13;14.13;;;8.98;;
73321;SDS011;61549;37.044;22.128;2022-07-04T04:12:39;10.90;;;8.60;;
73321;SDS011;61549;37.044;22.128;2022-07-04T04:15:05;13.55;;;8.88;;
73321;SDS011;61549;37.044;22.128;2022-07-04T04:17:31;10.77;;;8.50;;
73321;SDS011;61549;37.044;22.128;2022-07-04T04:19:57;10.43;;;8.20;;
73321;SDS011;61549;37.044;22.128;2022-07-04T04:22:23;10.27;;;8.13;;
73321;SDS011;61549;37.044;22.128;2022-07-04T04:24:49;12.38;;;8.50;;
73321;SDS011;61549;37.044;22.128;2022-07-04T04:27:15;11.07;;;8.32;;
73321;SDS011;61549;37.044;22.128;2022-07-04T04:29:41;12.75;;;8.27;;
73321;SDS011;61549;37.044;22.128;2022-07-04T04:32:07;12.35;;;8.00;;
73321;SDS011;61549;37.044;22.128;2022-07-04T04:34:33;11.73;;;8.95;;
73321;SDS011;61549;37.044;22.128;2022-07-04T04:36:59;13.98;;;8.25;;
73321;SDS011;61549;37.044;22.128;2022-07-04T04:39:25;10.65;;;8.18;;
73321;SDS011;61549;37.044;22.128;2022-07-04T04:41:51;8.70;;;7.80;;
73321;SDS011;61549;37.044;22.128;2022-07-04T04:44:18;12.93;;;7.78;;
73321;SDS011;61549;37.044;22.128;2022-07-04T04:46:44;11.98;;;7.53;;
73321;SDS011;61549;37.044;22.128;2022-07-04T04:49:11;12.27;;;8.30;;
73321;SDS011;61549;37.044;22.128;2022-07-04T04:51:37;10.52;;;7.68;;
73321;SDS011;61549;37.044;22.128;2022-07-04T04:54:05;15.23;;;8.00;;
73321;SDS011;61549;37.044;22.128;2022-07-04T04:56:31;10.57;;;8.00;;
73321;SDS011;61549;37.044;22.128;2022-07-04T04:58:57;16.65;;;7.90;;
73321;SDS011;61549;37.044;22.128;2022-07-04T05:01:23;10.20;;;7.78;;
73321;SDS011;61549;37.044;22.128;2022-07-04T05:03:49;13.60;;;7.53;;
73321;SDS011;61549;37.044;22.128;2022-07-04T05:06:14;11.88;;;7.60;;
73321;SDS011;61549;37.044;22.128;2022-07-04T05:08:40;11.07;;;7.47;;
73321;SDS011;61549;37.044;22.128;2022-07-04T05:11:06;9.82;;;7.15;;
73321;SDS011;61549;37.044;22.128;2022-07-04T05:13:32;8.95;;;7.13;;
73321;SDS011;61549;37.044;22.128;2022-07-04T05:15:59;13.57;;;7.00;;
73321;SDS011;61549;37.044;22.128;2022-07-04T05:18:25;8.88;;;6.70;;
73321;SDS011;61549;37.044;22.128;2022-07-04T05:20:51;8.35;;;6.65;;
73321;SDS011;61549;37.044;22.128;2022-07-04T05:26:02;10.75;;;7.70;;
73321;SDS011;61549;37.044;22.128;2022-07-04T05:28:28;8.45;;;6.95;;
73321;SDS011;61549;37.044;22.128;2022-07-04T05:30:56;11.27;;;7.25;;
73321;SDS011;61549;37.044;22.128;2022-07-04T05:33:22;9.18;;;7.40;;
73321;SDS011;61549;37.044;22.128;2022-07-04T05:35:48;10.45;;;7.70;;
73321;SDS011;61549;37.044;22.128;2022-07-04T05:38:14;8.50;;;7.10;;
73321;SDS011;61549;37.044;22.128;2022-07-04T05:40:39;11.48;;;7.65;;
73321;SDS011;61549;37.044;22.128;2022-07-04T05:43:05;9.27;;;7.15;;
73321;SDS011;61549;37.044;22.128;2022-07-04T05:45:31;11.20;;;7.38;;
73321;SDS011;61549;37.044;22.128;2022-07-04T05:47:57;9.75;;;6.55;;
73321;SDS011;61549;37.044;22.128;2022-07-04T05:50:23;13.82;;;6.72;;
73321;SDS011;61549;37.044;22.128;2022-07-04T05:52:49;9.15;;;6.50;;
73321;SDS011;61549;37.044;22.128;2022-07-04T05:55:15;9.93;;;7.13;;
73321;SDS011;61549;37.044;22.128;2022-07-04T05:57:41;11.95;;;6.93;;
73321;SDS011;61549;37.044;22.128;2022-07-04T06:00:07;10.40;;;7.30;;
73321;SDS011;61549;37.044;22.128;2022-07-04T06:02:33;7.80;;;6.43;;
73321;SDS011;61549;37.044;22.128;2022-07-04T06:04:59;8.50;;;5.80;;
73321;SDS011;61549;37.044;22.128;2022-07-04T06:07:28;9.10;;;6.15;;
73321;SDS011;61549;37.044;22.128;2022-07-04T06:09:54;8.98;;;6.10;;
73321;SDS011;61549;37.044;22.128;2022-07-04T06:12:20;7.80;;;6.05;;
73321;SDS011;61549;37.044;22.128;2022-07-04T06:14:46;6.90;;;5.72;;
73321;SDS011;61549;37.044;22.128;2022-07-04T06:17:12;9.82;;;5.72;;
73321;SDS011;61549;37.044;22.128;2022-07-04T06:19:38;7.88;;;5.63;;
73321;SDS011;61549;37.044;22.128;2022-07-04T06:22:05;6.28;;;5.50;;
73321;SDS011;61549;37.044;22.128;2022-07-04T06:24:31;9.00;;;5.00;;
73321;SDS011;61549;37.044;22.128;2022-07-04T06:26:57;8.20;;;5.13;;
73321;SDS011;61549;37.044;22.128;2022-07-04T06:29:22;6.32;;;5.30;;
73321;SDS011;61549;37.044;22.128;2022-07-04T06:31:48;5.80;;;4.63;;
73321;SDS011;61549;37.044;22.128;2022-07-04T06:34:17;9.82;;;5.50;;
73321;SDS011;61549;37.044;22.128;2022-07-04T06:37:04;6.80;;;5.15;;
73321;SDS011;61549;37.044;22.128;2022-07-04T06:39:30;8.38;;;5.88;;
73321;SDS011;61549;37.044;22.128;2022-07-04T06:41:56;8.52;;;5.45;;
73321;SDS011;61549;37.044;22.128;2022-07-04T06:44:25;5.95;;;4.82;;
73321;SDS011;61549;37.044;22.128;2022-07-04T06:46:51;10.13;;;4.80;;
73321;SDS011;61549;37.044;22.128;2022-07-04T06:49:18;8.07;;;5.38;;
73321;SDS011;61549;37.044;22.128;2022-07-04T06:51:49;8.30;;;5.47;;
73321;SDS011;61549;37.044;22.128;2022-07-04T06:54:16;6.22;;;5.28;;
73321;SDS011;61549;37.044;22.128;2022-07-04T06:56:45;7.43;;;5.13;;
73321;SDS011;61549;37.044;22.128;2022-07-04T06:59:14;8.13;;;5.30;;
73321;SDS011;61549;37.044;22.128;2022-07-04T07:01:40;6.80;;;5.50;;
73321;SDS011;61549;37.044;22.128;2022-07-04T07:04:08;7.53;;;5.40;;
73321;SDS011;61549;37.044;22.128;2022-07-04T07:06:35;7.97;;;5.60;;
73321;SDS011;61549;37.044;22.128;2022-07-04T07:09:02;8.60;;;5.60;;
73321;SDS011;61549;37.044;22.128;2022-07-04T07:11:31;6.18;;;5.57;;
73321;SDS011;61549;37.044;22.128;2022-07-04T07:13:57;7.05;;;5.55;;
73321;SDS011;61549;37.044;22.128;2022-07-04T07:16:29;7.07;;;5.00;;
73321;SDS011;61549;37.044;22.128;2022-07-04T07:18:55;6.20;;;5.30;;
73321;SDS011;61549;37.044;22.128;2022-07-04T07:21:21;10.75;;;5.95;;
73321;SDS011;61549;37.044;22.128;2022-07-04T07:23:47;7.30;;;5.25;;
73321;SDS011;61549;37.044;22.128;2022-07-04T07:26:14;9.57;;;5.30;;
73321;SDS011;61549;37.044;22.128;2022-07-04T07:28:40;9.70;;;5.40;;
73321;SDS011;61549;37.044;22.128;2022-07-04T07:31:09;8.23;;;4.80;;
73321;SDS011;61549;37.044;22.128;2022-07-04T07:33:35;7.43;;;5.50;;
73321;SDS011;61549;37.044;22.128;2022-07-04T07:36:05;7.30;;;4.93;;
73321;SDS011;61549;37.044;22.128;2022-07-04T07:38:36;8.20;;;5.82;;
73321;SDS011;61549;37.044;22.128;2022-07-04T07:41:28;6.10;;;5.43;;
73321;SDS011;61549;37.044;22.128;2022-07-04T07:43:54;9.68;;;5.68;;
73321;SDS011;61549;37.044;22.128;2022-07-04T07:46:21;6.88;;;5.60;;
73321;SDS011;61549;37.044;22.128;2022-07-04T07:48:47;10.63;;;5.63;;
73321;SDS011;61549;37.044;22.128;2022-07-04T07:51:16;7.50;;;5.07;;
73321;SDS011;61549;37.044;22.128;2022-07-04T07:53:46;6.82;;;5.28;;
73321;SDS011;61549;37.044;22.128;2022-07-04T07:56:12;6.88;;;4.90;;
73321;SDS011;61549;37.044;22.128;2022-07-04T07:58:41;7.10;;;5.05;;
73321;SDS011;61549;37.044;22.128;2022-07-04T08:01:17;6.30;;;4.90;;
73321;SDS011;61549;37.044;22.128;2022-07-04T08:03:52;7.50;;;5.50;;
73321;SDS011;61549;37.044;22.128;2022-07-04T08:06:37;7.95;;;5.55;;
73321;SDS011;61549;37.044;22.128;2022-07-04T08:09:03;5.50;;;4.75;;
73321;SDS011;61549;37.044;22.128;2022-07-04T08:11:31;5.72;;;4.70;;
73321;SDS011;61549;37.044;22.128;2022-07-04T08:13:58;7.22;;;4.85;;
73321;SDS011;61549;37.044;22.128;2022-07-04T08:16:34;7.07;;;5.07;;
73321;SDS011;61549;37.044;22.128;2022-07-04T08:19:09;10.60;;;5.70;;
73321;SDS011;61549;37.044;22.128;2022-07-04T08:21:45;6.97;;;4.88;;
73321;SDS011;61549;37.044;22.128;2022-07-04T08:24:15;7.63;;;4.90;;
73321;SDS011;61549;37.044;22.128;2022-07-04T08:26:42;6.20;;;4.65;;
73321;SDS011;61549;37.044;22.128;2022-07-04T08:29:09;5.25;;;4.75;;
73321;SDS011;61549;37.044;22.128;2022-07-04T08:31:36;9.48;;;4.07;;
73321;SDS011;61549;37.044;22.128;2022-07-04T08:34:03;5.80;;;4.30;;
73321;SDS011;61549;37.044;22.128;2022-07-04T08:36:30;6.40;;;4.35;;
73321;SDS011;61549;37.044;22.128;2022-07-04T08:38:56;6.32;;;4.45;;
73321;SDS011;61549;37.044;22.128;2022-07-04T08:41:22;7.55;;;4.60;;
73321;SDS011;61549;37.044;22.128;2022-07-04T08:43:48;9.77;;;4.43;;
73321;SDS011;61549;37.044;22.128;2022-07-04T08:46:16;5.18;;;4.30;;
73321;SDS011;61549;37.044;22.128;2022-07-04T08:48:43;5.63;;;4.35;;
73321;SDS011;61549;37.044;22.128;2022-07-04T08:52:00;4.93;;;4.13;;
73321;SDS011;61549;37.044;22.128;2022-07-04T08:54:25;5.82;;;4.28;;
73321;SDS011;61549;37.044;22.128;2022-07-04T08:57:10;9.05;;;3.97;;
73321;SDS011;61549;37.044;22.128;2022-07-04T08:59:55;5.95;;;4.30;;
73321;SDS011;61549;37.044;22.128;2022-07-04T09:02:24;4.50;;;4.10;;
73321;SDS011;61549;37.044;22.128;2022-07-04T09:04:53;4.55;;;4.10;;
73321;SDS011;61549;37.044;22.128;2022-07-04T09:07:19;7.30;;;4.43;;
73321;SDS011;61549;37.044;22.128;2022-07-04T09:09:45;6.65;;;3.85;;
73321;SDS011;61549;37.044;22.128;2022-07-04T09:12:12;6.85;;;4.22;;
73321;SDS011;61549;37.044;22.128;2022-07-04T09:14:39;5.47;;;3.65;;
73321;SDS011;61549;37.044;22.128;2022-07-04T09:17:06;7.25;;;4.40;;
73321;SDS011;61549;37.044;22.128;2022-07-04T09:19:32;5.78;;;4.00;;
73321;SDS011;61549;37.044;22.128;2022-07-04T09:22:01;8.80;;;4.35;;
73321;SDS011;61549;37.044;22.128;2022-07-04T09:24:46;6.53;;;4.03;;
73321;SDS011;61549;37.044;22.128;2022-07-04T09:30:00;5.18;;;4.07;;
73321;SDS011;61549;37.044;22.128;2022-07-04T09:32:37;5.07;;;3.63;;
73321;SDS011;61549;37.044;22.128;2022-07-04T09:35:05;4.88;;;3.55;;
73321;SDS011;61549;37.044;22.128;2022-07-04T09:37:40;4.85;;;3.90;;
73321;SDS011;61549;37.044;22.128;2022-07-04T09:40:11;5.47;;;3.67;;
73321;SDS011;61549;37.044;22.128;2022-07-04T09:42:49;3.42;;;3.13;;
73321;SDS011;61549;37.044;22.128;2022-07-04T09:45:16;4.65;;;3.30;;
73321;SDS011;61549;37.044;22.128;2022-07-04T09:47:45;3.70;;;2.90;;
73321;SDS011;61549;37.044;22.128;2022-07-04T09:50:16;5.78;;;3.22;;
73321;SDS011;61549;37.044;22.128;2022-07-04T09:52:56;4.93;;;3.13;;
73321;SDS011;61549;37.044;22.128;2022-07-04T09:55:31;5.32;;;2.70;;
73321;SDS011;61549;37.044;22.128;2022-07-04T09:58:02;5.78;;;3.25;;
73321;SDS011;61549;37.044;22.128;2022-07-04T10:00:30;6.18;;;3.10;;
73321;SDS011;61549;37.044;22.128;2022-07-04T10:06:09;5.03;;;3.00;;
73321;SDS011;61549;37.044;22.128;2022-07-04T10:08:37;4.82;;;3.15;;
73321;SDS011;61549;37.044;22.128;2022-07-04T10:11:05;4.32;;;3.05;;
73321;SDS011;61549;37.044;22.128;2022-07-04T10:13:31;5.85;;;3.47;;
73321;SDS011;61549;37.044;22.128;2022-07-04T10:15:58;5.90;;;3.15;;
73321;SDS011;61549;37.044;22.128;2022-07-04T10:18:25;5.60;;;3.10;;
73321;SDS011;61549;37.044;22.128;2022-07-04T10:20:55;3.30;;;3.00;;
73321;SDS011;61549;37.044;22.128;2022-07-04T10:23:22;3.28;;;2.97;;
73321;SDS011;61549;37.044;22.128;2022-07-04T10:25:51;4.10;;;2.85;;
73321;SDS011;61549;37.044;22.128;2022-07-04T10:28:21;4.93;;;3.10;;
73321;SDS011;61549;37.044;22.128;2022-07-04T10:30:50;4.70;;;3.22;;
73321;SDS011;61549;37.044;22.128;2022-07-04T10:33:24;5.13;;;3.30;;
73321;SDS011;61549;37.044;22.128;2022-07-04T10:35:55;4.43;;;3.20;;
73321;SDS011;61549;37.044;22.128;2022-07-04T10:40:57;3.90;;;3.20;;
73321;SDS011;61549;37.044;22.128;2022-07-04T10:54:28;5.40;;;3.88;;
73321;SDS011;61549;37.044;22.128;2022-07-04T10:57:15;6.47;;;3.20;;
73321;SDS011;61549;37.044;22.128;2022-07-04T11:02:26;4.80;;;3.50;;
73321;SDS011;61549;37.044;22.128;2022-07-04T11:17:54;5.63;;;3.50;;
73321;SDS011;61549;37.044;22.128;2022-07-04T11:20:25;6.38;;;3.80;;
73321;SDS011;61549;37.044;22.128;2022-07-04T11:23:06;4.97;;;3.72;;
73321;SDS011;61549;37.044;22.128;2022-07-04T11:25:34;4.95;;;3.60;;
73321;SDS011;61549;37.044;22.128;2022-07-04T11:30:51;4.72;;;3.22;;
73321;SDS011;61549;37.044;22.128;2022-07-04T11:33:19;5.68;;;3.42;;
73321;SDS011;61549;37.044;22.128;2022-07-04T11:36:03;5.93;;;3.85;;
73321;SDS011;61549;37.044;22.128;2022-07-04T11:38:51;4.63;;;3.70;;
73321;SDS011;61549;37.044;22.128;2022-07-04T11:41:32;6.82;;;4.00;;
73321;SDS011;61549;37.044;22.128;2022-07-04T11:44:25;8.38;;;3.88;;
73321;SDS011;61549;37.044;22.128;2022-07-04T11:47:12;4.85;;;3.55;;
73321;SDS011;61549;37.044;22.128;2022-07-04T11:49:52;4.03;;;3.60;;
73321;SDS011;61549;37.044;22.128;2022-07-04T11:52:21;6.10;;;3.50;;
73321;SDS011;61549;37.044;22.128;2022-07-04T11:54:50;3.65;;;3.10;;
73321;SDS011;61549;37.044;22.128;2022-07-04T12:00:01;5.32;;;2.95;;
73321;SDS011;61549;37.044;22.128;2022-07-04T12:02:46;4.70;;;3.50;;
73321;SDS011;61549;37.044;22.128;2022-07-04T12:05:13;6.80;;;3.78;;
73321;SDS011;61549;37.044;22.128;2022-07-04T12:07:41;6.45;;;3.42;;
73321;SDS011;61549;37.044;22.128;2022-07-04T12:15:25;5.75;;;3.15;;
73321;SDS011;61549;37.044;22.128;2022-07-04T12:18:01;4.35;;;3.45;;
73321;SDS011;61549;37.044;22.128;2022-07-04T12:20:28;5.28;;;3.88;;
73321;SDS011;61549;37.044;22.128;2022-07-04T12:22:56;5.47;;;3.10;;
73321;SDS011;61549;37.044;22.128;2022-07-04T12:25:28;5.18;;;3.20;;
73321;SDS011;61549;37.044;22.128;2022-07-04T12:28:14;5.35;;;3.15;;
73321;SDS011;61549;37.044;22.128;2022-07-04T12:30:52;3.78;;;2.65;;
73321;SDS011;61549;37.044;22.128;2022-07-04T12:33:19;3.78;;;2.80;;
73321;SDS011;61549;37.044;22.128;2022-07-04T12:36:04;3.30;;;2.70;;
73321;SDS011;61549;37.044;22.128;2022-07-04T12:38:35;6.10;;;2.75;;
73321;SDS011;61549;37.044;22.128;2022-07-04T12:41:06;3.05;;;2.85;;
73321;SDS011;61549;37.044;22.128;2022-07-04T12:46:06;2.90;;;2.40;;
73321;SDS011;61549;37.044;22.128;2022-07-04T12:48:38;5.43;;;2.67;;
73321;SDS011;61549;37.044;22.128;2022-07-04T12:51:15;2.63;;;2.40;;
73321;SDS011;61549;37.044;22.128;2022-07-04T12:53:43;2.92;;;2.47;;
73321;SDS011;61549;37.044;22.128;2022-07-04T12:56:33;3.83;;;2.70;;
73321;SDS011;61549;37.044;22.128;2022-07-04T12:59:06;2.85;;;2.40;;
73321;SDS011;61549;37.044;22.128;2022-07-04T13:01:38;3.38;;;2.60;;
73321;SDS011;61549;37.044;22.128;2022-07-04T13:04:07;5.03;;;2.80;;
73321;SDS011;61549;37.044;22.128;2022-07-04T13:06:34;3.10;;;2.33;;
73321;SDS011;61549;37.044;22.128;2022-07-04T13:09:02;3.78;;;2.80;;
73321;SDS011;61549;37.044;22.128;2022-07-04T13:11:29;4.38;;;2.45;;
73321;SDS011;61549;37.044;22.128;2022-07-04T13:14:14;3.17;;;2.58;;
73321;SDS011;61549;37.044;22.128;2022-07-04T13:16:40;3.58;;;2.80;;
73321;SDS011;61549;37.044;22.128;2022-07-04T13:19:06;4.97;;;2.92;;
73321;SDS011;61549;37.044;22.128;2022-07-04T13:21:32;4.68;;;2.75;;
73321;SDS011;61549;37.044;22.128;2022-07-04T13:23:58;4.30;;;2.88;;
73321;SDS011;61549;37.044;22.128;2022-07-04T13:26:24;5.32;;;2.90;;
73321;SDS011;61549;37.044;22.128;2022-07-04T13:28:50;3.40;;;2.88;;
73321;SDS011;61549;37.044;22.128;2022-07-04T13:31:16;5.10;;;2.88;;
73321;SDS011;61549;37.044;22.128;2022-07-04T13:33:42;5.00;;;2.78;;
73321;SDS011;61549;37.044;22.128;2022-07-04T13:36:08;3.88;;;2.83;;
73321;SDS011;61549;37.044;22.128;2022-07-04T13:38:38;3.50;;;2.78;;
73321;SDS011;61549;37.044;22.128;2022-07-04T13:41:04;4.38;;;2.78;;
73321;SDS011;61549;37.044;22.128;2022-07-04T13:43:31;4.80;;;3.13;;
73321;SDS011;61549;37.044;22.128;2022-07-04T13:45:57;4.05;;;3.08;;
73321;SDS011;61549;37.044;22.128;2022-07-04T13:48:26;4.65;;;3.03;;
73321;SDS011;61549;37.044;22.128;2022-07-04T13:50:55;4.18;;;3.17;;
73321;SDS011;61549;37.044;22.128;2022-07-04T13:53:21;4.97;;;3.00;;
73321;SDS011;61549;37.044;22.128;2022-07-04T13:55:47;4.38;;;3.38;;
73321;SDS011;61549;37.044;22.128;2022-07-04T13:58:14;3.45;;;3.05;;
73321;SDS011;61549;37.044;22.128;2022-07-04T14:00:40;5.47;;;3.05;;
73321;SDS011;61549;37.044;22.128;2022-07-04T14:03:10;4.78;;;3.30;;
73321;SDS011;61549;37.044;22.128;2022-07-04T14:05:36;3.95;;;3.17;;
73321;SDS011;61549;37.044;22.128;2022-07-04T14:08:02;4.65;;;3.45;;
73321;SDS011;61549;37.044;22.128;2022-07-04T14:10:29;4.00;;;3.00;;
73321;SDS011;61549;37.044;22.128;2022-07-04T14:12:58;4.15;;;2.92;;
73321;SDS011;61549;37.044;22.128;2022-07-04T14:15:24;4.72;;;2.90;;
73321;SDS011;61549;37.044;22.128;2022-07-04T14:17:50;6.22;;;3.30;;
73321;SDS011;61549;37.044;22.128;2022-07-04T14:20:16;6.30;;;2.90;;
73321;SDS011;61549;37.044;22.128;2022-07-04T14:22:43;5.15;;;3.17;;
73321;SDS011;61549;37.044;22.128;2022-07-04T14:25:10;4.28;;;2.90;;
73321;SDS011;61549;37.044;22.128;2022-07-04T14:27:39;4.95;;;3.08;;
73321;SDS011;61549;37.044;22.128;2022-07-04T14:30:05;5.30;;;3.20;;
73321;SDS011;61549;37.044;22.128;2022-07-04T14:32:32;5.80;;;2.92;;
73321;SDS011;61549;37.044;22.128;2022-07-04T14:34:58;4.57;;;3.10;;
73321;SDS011;61549;37.044;22.128;2022-07-04T14:37:24;4.47;;;3.10;;
73321;SDS011;61549;37.044;22.128;2022-07-04T14:39:49;4.82;;;3.13;;
73321;SDS011;61549;37.044;22.128;2022-07-04T14:42:15;4.07;;;3.20;;
73321;SDS011;61549;37.044;22.128;2022-07-04T14:44:44;4.63;;;3.08;;
73321;SDS011;61549;37.044;22.128;2022-07-04T14:47:10;6.55;;;3.20;;
73321;SDS011;61549;37.044;22.128;2022-07-04T14:49:36;3.80;;;3.20;;
73321;SDS011;61549;37.044;22.128;2022-07-04T14:52:02;6.30;;;3.05;;
73321;SDS011;61549;37.044;22.128;2022-07-04T14:54:29;4.25;;;3.05;;
73321;SDS011;61549;37.044;22.128;2022-07-04T14:56:56;5.20;;;3.30;;
73321;SDS011;61549;37.044;22.128;2022-07-04T14:59:23;4.82;;;3.45;;
73321;SDS011;61549;37.044;22.128;2022-07-04T15:01:53;3.70;;;2.90;;
73321;SDS011;61549;37.044;22.128;2022-07-04T15:04:22;3.35;;;2.90;;
73321;SDS011;61549;37.044;22.128;2022-07-04T15:06:48;3.22;;;2.83;;
73321;SDS011;61549;37.044;22.128;2022-07-04T15:09:14;4.10;;;2.83;;
73321;SDS011;61549;37.044;22.128;2022-07-04T15:11:39;4.32;;;3.03;;
73321;SDS011;61549;37.044;22.128;2022-07-04T15:14:05;6.97;;;2.95;;
73321;SDS011;61549;37.044;22.128;2022-07-04T15:16:31;3.35;;;3.00;;
73321;SDS011;61549;37.044;22.128;2022-07-04T15:18:57;4.93;;;2.88;;
73321;SDS011;61549;37.044;22.128;2022-07-04T15:21:24;5.03;;;2.88;;
73321;SDS011;61549;37.044;22.128;2022-07-04T15:24:09;3.22;;;2.92;;
73321;SDS011;61549;37.044;22.128;2022-07-04T15:26:39;3.78;;;2.80;;
73321;SDS011;61549;37.044;22.128;2022-07-04T15:29:06;3.42;;;3.00;;